Terminal Aerodrome Forecast
Issued by NWS Melbourne, FL

Home | Current Version | Previous Version | Text Only | Print | Product List | Glossary On
Versions: 1 2 3 4 5 6 7 8 9 10 11 12 13 14 15 16 17
000
FTUS42 KMLB 011733
TAFVRB
TAF
KVRB 011733Z 0118/0218 20011G18KT P6SM VCSH SCT030 SCT060 BKN100
      TEMPO 0118/0120 VRB20G30KT 3SM TSRA BKN025CB BKN035
     FM020000 20006KT P6SM VCSH FEW025 BKN150 BKN250=

USA.gov is the U.S. government's official web portal to all federal, state and local government web resources and services.